Date,TemperatureHighF,TemperatureAvgF,TemperatureLowF,DewpointHighF,DewpointAvgF,DewpointLowF,HumidityHigh,HumidityAvg,HumidityLow,PressureMaxIn,PressureMinIn,WindSpeedMaxMPH,WindSpeedAvgMPH,GustSpeedMaxMPH,PrecipitationSumIn
2013-2-1,45.7,29.6,17.6,20.4,8.9,-1.7,66,43,21,30.04,29.72,14,5,16,0.00
2013-2-2,59.0,41.0,27.0,34.0,27.5,19.9,80,61,33,29.86,29.73,11,3,17,0.00
2013-2-3,58.1,48.0,36.1,31.8,26.7,19.6,80,46,24,29.89,29.51,13,6,17,0.00
2013-2-4,66.6,55.5,42.8,41.4,35.0,28.4,72,47,24,29.55,29.39,18,6,18,0.02
2013-2-5,70.2,48.2,31.6,44.3,33.9,23.5,92,63,18,29.62,29.49,9,2,9,0.00
2013-2-6,68.9,53.0,37.8,54.0,42.7,34.2,90,69,53,29.63,29.46,17,6,21,0.00
2013-2-7,65.3,52.9,43.0,58.3,49.7,38.3,98,89,74,29.72,29.40,21,7,22,0.02
2013-2-8,55.6,41.0,34.9,38.3,34.8,31.7,92,79,48,29.91,29.72,14,5,15,0.00
2013-2-9,46.0,41.9,38.1,43.4,38.4,34.3,99,88,71,29.74,29.31,22,8,22,0.05
2013-2-10,64.9,52.2,41.4,51.6,35.2,19.9,99,59,18,29.63,29.19,21,8,26,0.12
2013-2-11,60.4,42.7,33.1,29.2,25.9,16.6,73,53,22,29.81,29.62,11,4,12,0.00
2013-2-12,43.5,38.0,33.4,39.8,32.5,24.9,99,81,62,29.70,29.53,14,6,15,0.33
2013-2-13,60.4,42.4,33.6,40.0,34.6,29.8,99,77,35,29.62,29.52,13,5,15,0.05
2013-2-14,63.3,47.0,32.9,37.8,31.5,24.6,75,56,31,29.79,29.54,15,5,19,0.00
2013-2-15,50.5,37.7,29.7,33.0,18.1,5.4,76,48,19,29.99,29.78,18,7,18,0.00
2013-2-16,54.9,36.9,25.9,27.0,15.5,5.9,78,45,17,29.97,29.64,13,5,21,0.00
2013-2-17,74.7,51.8,32.4,35.5,28.7,21.2,76,45,16,29.65,29.33,22,7,22,0.00
2013-2-18,64.9,55.3,38.5,53.3,39.8,26.7,78,57,33,29.73,29.20,27,12,31,0.00
2013-2-19,60.8,41.4,27.1,28.8,22.8,16.2,80,50,20,29.93,29.73,11,4,12,0.00
2013-2-20,39.0,35.8,33.1,36.4,29.7,21.4,99,80,51,29.85,29.57,14,5,16,0.43
2013-2-21,36.0,33.5,27.3,35.2,32.8,19.8,99,97,73,29.57,29.25,19,5,21,0.98
2013-2-22,44.2,28.9,21.6,23.9,19.4,16.6,82,68,43,29.72,29.53,12,5,18,0.00
2013-2-23,55.8,34.7,21.0,27.6,21.2,16.0,83,60,27,29.71,29.52,7,3,9,0.00
2013-2-24,66.2,46.4,29.5,41.6,33.4,23.7,81,63,36,29.55,29.33,20,6,23,0.00
2013-2-25,45.9,39.3,32.9,39.5,36.5,32.7,99,90,69,29.39,29.05,27,10,30,1.18
2013-2-26,43.5,36.8,32.7,37.7,33.9,29.5,99,89,76,29.49,29.06,22,9,23,0.24
2013-2-27,51.3,37.4,31.8,35.4,29.9,26.6,91,75,45,29.73,29.48,21,7,21,0.00
2013-2-28,51.6,39.0,30.9,34.6,29.4,25.7,87,69,47,29.81,29.72,14,7,17,0.00